Time;durP1;ratioP1;P1;durP2;ratioP2;P2;SDS_P1;SDS_P2;PMS_P1;PMS_P2;Temp;Humidity;BMP_temperature;BMP_pressure;BME280_temperature;BME280_humidity;BME280_pressure;Samples;Min_cycle;Max_cycle;Signal;HPM_P1;HPM_P2
2021/12/17 05:19:59;;;;;;;;;;;;;;;1.29;100.00;99968.16;5936645;23;19926;-69
2021/12/17 05:22:29;;;;;;;;;;;;;;;1.26;100.00;99968.75;4870858;29;19938;-69
2021/12/17 05:24:57;;;;;;;;;;;;;;;1.31;100.00;99959.59;4866338;29;19927;-69
2021/12/17 05:27:24;;;;;;;;;;;;;;;1.39;100.00;99967.19;4881715;29;19943;-69
2021/12/17 05:29:56;;;;;;;;;;;;;;;1.45;100.00;99954.13;4866645;29;20313;-70
2021/12/17 05:32:24;;;;;;;;;;;;;;;1.54;100.00;99952.38;4865354;29;19935;-69
2021/12/17 05:34:58;;;;;;;;;;;;;;;1.62;100.00;99948.91;4866163;29;20359;-70
2021/12/17 05:37:25;;;;;;;;;;;;;;;1.68;100.00;99959.59;4866526;29;20336;-70
2021/12/17 05:39:53;;;;;;;;;;;;;;;1.75;100.00;99948.19;4866791;29;19928;-70
2021/12/17 05:42:23;;;;;;;;;;;;;;;1.81;100.00;99938.72;4866751;29;19931;-70
2021/12/17 05:45:09;;;;;;;;;;;;;;;1.89;100.00;99938.00;4866407;29;20232;-69
2021/12/17 05:47:37;;;;;;;;;;;;;;;2.01;100.00;99949.38;4866753;29;19927;-70
2021/12/17 05:50:04;;;;;;;;;;;;;;;2.05;100.00;99952.38;4865840;29;19943;-69
2021/12/17 05:52:32;;;;;;;;;;;;;;;2.10;100.00;99955.06;4882609;29;19935;-69
2021/12/17 05:55:00;;;;;;;;;;;;;;;2.18;100.00;99951.56;4881544;29;19939;-69
2021/12/17 05:57:27;;;;;;;;;;;;;;;2.26;100.00;99950.88;4861310;29;19932;-69
2021/12/17 05:59:54;;;;;;;;;;;;;;;2.33;100.00;99960.41;4865216;29;19932;-69
2021/12/17 06:02:22;;;;;;;;;;;;;;;2.37;100.00;99960.66;4880967;29;19962;-69
2021/12/17 06:04:53;;;;;;;;;;;;;;;2.38;100.00;99957.56;4866268;29;19935;-69
2021/12/17 06:07:26;;;;;;;;;;;;;;;2.40;100.00;99960.84;4879962;29;20560;-69
2021/12/17 06:10:02;;;;;;;;;;;;;;;2.39;100.00;99963.91;4864977;29;19958;-69
2021/12/17 06:12:34;;;;;;;;;;;;;;;2.38;100.00;99965.84;4880146;29;19936;-69
2021/12/17 06:15:05;;;;;;;;;;;;;;;2.22;100.00;99967.25;4864260;29;19936;-69
2021/12/17 06:17:33;;;;;;;;;;;;;;;2.16;100.00;99971.22;4864575;29;19935;-69
2021/12/17 06:20:00;;;;;;;;;;;;;;;2.18;100.00;99977.25;4861441;29;19935;-68
2021/12/17 06:22:30;;;;;;;;;;;;;;;2.20;100.00;99976.97;4864010;29;19931;-67
2021/12/17 06:25:03;;;;;;;;;;;;;;;2.17;100.00;99988.59;4878651;29;20185;-69
2021/12/17 06:27:30;;;;;;;;;;;;;;;2.19;100.00;99992.69;4878407;29;19927;-69
2021/12/17 06:30:01;;;;;;;;;;;;;;;2.20;100.00;99985.22;4860969;29;19938;-69
2021/12/17 06:32:28;;;;;;;;;;;;;;;2.22;100.00;99988.50;4878579;29;19934;-69
2021/12/17 06:34:57;;;;;;;;;;;;;;;2.25;100.00;99991.47;4879646;29;19935;-70
2021/12/17 06:37:25;;;;;;;;;;;;;;;2.32;100.00;99991.94;4862985;29;20360;-69
2021/12/17 06:39:52;;;;;;;;;;;;;;;2.36;100.00;99970.88;4878906;29;19936;-69
2021/12/17 06:42:19;;;;;;;;;;;;;;;2.37;100.00;99963.41;4863432;29;19943;-69
2021/12/17 06:44:48;;;;;;;;;;;;;;;2.36;100.00;99968.09;4866615;29;19932;-69
2021/12/17 06:47:32;;;;;;;;;;;;;;;2.37;100.00;99971.69;4865106;29;19939;-69
2021/12/17 06:54:38;;;;;;;;;;;;;;;2.44;100.00;99983.16;4863449;29;19939;-69
2021/12/17 07:22:16;;;;;;;;;;;;;;;3.04;100.00;99972.84;4879719;29;19939;-69
2021/12/17 07:33:23;;;;;;;;;;;;;;;4.62;100.00;99994.59;4863743;29;19927;-69
2021/12/17 07:36:12;;;;;;;;;;;;;;;5.45;100.00;99995.56;4862113;29;20261;-69
2021/12/17 07:38:48;;;;;;;;;;;;;;;6.20;100.00;99995.97;4863207;29;19932;-69
2021/12/17 07:41:43;;;;;;;;;;;;;;;7.11;100.00;99992.81;4853471;29;19943;-70
2021/12/17 07:44:49;;;;;;;;;;;;;;;8.06;100.00;99995.81;4825773;29;19943;-70
2021/12/17 07:47:48;;;;;;;;;;;;;;;9.13;100.00;100002.13;4816009;29;19933;-70
2021/12/17 07:50:27;;;;;;;;;;;;;;;10.46;100.00;100015.97;4854171;29;20799;-70
2021/12/17 07:53:27;;;;;;;;;;;;;;;12.39;100.00;100013.69;4876138;29;19942;-70
2021/12/17 07:56:02;;;;;;;;;;;;;;;12.94;100.00;100026.41;4865759;29;19928;-70
2021/12/17 07:58:34;;;;;;;;;;;;;;;14.93;100.00;100029.97;4881383;29;19936;-70
2021/12/17 08:01:03;;;;;;;;;;;;;;;16.60;96.29;100027.34;4866919;29;19935;-70
2021/12/17 08:03:30;;;;;;;;;;;;;;;17.98;83.31;100039.75;4876422;29;19940;-70
2021/12/17 08:06:04;;;;;;;;;;;;;;;19.20;71.36;100034.13;4865274;29;20237;-68
2021/12/17 08:08:43;;;;;;;;;;;;;;;20.84;61.65;100021.69;4870916;29;20351;-68
2021/12/17 08:11:26;;;;;;;;;;;;;;;21.17;53.07;100034.31;4881720;29;19982;-68
2021/12/17 08:13:56;;;;;;;;;;;;;;;21.49;52.12;100046.00;4866468;29;19952;-68
2021/12/17 08:24:52;;;;;;;;;;;;;;;18.68;59.00;100061.47;4865144;29;20275;-68
2021/12/17 08:32:43;;;;;;;;;;;;;;;16.81;63.31;100041.56;4849941;29;19943;-70
2021/12/17 08:35:12;;;;;;;;;;;;;;;15.98;70.14;100035.00;4865679;29;19950;-70
2021/12/17 08:37:40;;;;;;;;;;;;;;;15.52;71.17;100031.81;4863258;29;19928;-70
2021/12/17 08:40:09;;;;;;;;;;;;;;;15.68;70.32;100028.72;4880808;29;19955;-70
2021/12/17 08:42:49;;;;;;;;;;;;;;;15.05;70.63;100021.25;4863001;29;19928;-70
2021/12/17 08:45:19;;;;;;;;;;;;;;;14.26;75.76;100002.94;4862861;29;19936;-70
2021/12/17 08:47:47;;;;;;;;;;;;;;;13.52;79.95;100001.81;4863100;29;19959;-70
2021/12/17 08:50:37;;;;;;;;;;;;;;;12.83;85.08;100005.75;4863139;29;19940;-70
2021/12/17 08:53:09;;;;;;;;;;;;;;;11.86;87.80;100010.47;4862472;29;19947;-70
2021/12/17 08:55:37;;;;;;;;;;;;;;;11.35;93.22;100008.78;4869669;29;19928;-70
2021/12/17 08:58:05;;;;;;;;;;;;;;;10.86;95.48;100008.31;4877783;29;20050;-69
2021/12/17 09:00:33;;;;;;;;;;;;;;;10.81;99.94;100013.38;4880635;29;19931;-69
2021/12/17 09:03:02;;;;;;;;;;;;;;;10.63;100.00;100001.69;4865612;29;19954;-70
2021/12/17 09:05:53;;;;;;;;;;;;;;;10.29;100.00;100003.09;4871866;29;19932;-69
2021/12/17 09:08:26;;;;;;;;;;;;;;;10.17;100.00;99996.72;4863876;29;19958;-70
2021/12/17 09:10:58;;;;;;;;;;;;;;;10.04;100.00;99997.88;4865910;29;19928;-69
2021/12/17 09:13:53;;;;;;;;;;;;;;;9.51;100.00;100004.59;4877866;29;19939;-69
2021/12/17 09:16:24;;;;;;;;;;;;;;;9.40;100.00;99998.66;4880884;29;19932;-69
2021/12/17 09:18:53;;;;;;;;;;;;;;;9.47;100.00;99989.69;4864753;29;19958;-69
2021/12/17 09:21:38;;;;;;;;;;;;;;;9.35;100.00;99998.06;4865611;29;19934;-70
2021/12/17 09:24:14;;;;;;;;;;;;;;;9.17;100.00;100001.09;4863694;29;19935;-69
2021/12/17 09:27:00;;;;;;;;;;;;;;;9.09;100.00;99999.25;4881518;29;20266;-69
2021/12/17 09:29:37;;;;;;;;;;;;;;;9.08;100.00;100011.56;4864516;29;20309;-69
2021/12/17 09:32:05;;;;;;;;;;;;;;;9.06;100.00;100008.28;4881811;29;20010;-69
2021/12/17 09:34:32;;;;;;;;;;;;;;;9.04;100.00;100004.22;4880929;29;19928;-69
2021/12/17 09:36:59;;;;;;;;;;;;;;;9.10;100.00;99991.66;4881358;29;19932;-69
2021/12/17 09:39:26;;;;;;;;;;;;;;;9.09;100.00;99990.03;4880327;29;19935;-70
2021/12/17 09:41:55;;;;;;;;;;;;;;;9.18;100.00;99988.78;4865249;29;19932;-69
2021/12/17 09:44:23;;;;;;;;;;;;;;;9.36;100.00;99985.75;4881746;29;20313;-70
2021/12/17 09:46:50;;;;;;;;;;;;;;;9.46;100.00;99997.28;4880703;29;19932;-69
2021/12/17 09:49:18;;;;;;;;;;;;;;;9.55;100.00;99986.81;4881640;29;19939;-69
2021/12/17 09:51:46;;;;;;;;;;;;;;;9.63;100.00;99983.06;4880964;29;19932;-69
2021/12/17 09:54:14;;;;;;;;;;;;;;;9.82;100.00;99983.28;4881392;29;20317;-69
2021/12/17 09:56:42;;;;;;;;;;;;;;;9.95;100.00;99981.28;4875885;29;19939;-69
2021/12/17 09:59:10;;;;;;;;;;;;;;;9.95;100.00;99983.25;4881300;29;20680;-69
2021/12/17 10:01:38;;;;;;;;;;;;;;;10.01;100.00;99988.22;4880496;29;19939;-69
2021/12/17 10:04:18;;;;;;;;;;;;;;;10.07;100.00;99986.00;4879085;29;20362;-69
2021/12/17 10:06:47;;;;;;;;;;;;;;;10.35;100.00;99981.28;4876715;29;19935;-69
2021/12/17 10:09:15;;;;;;;;;;;;;;;10.50;100.00;99981.34;4881245;29;20653;-69
2021/12/17 10:12:02;;;;;;;;;;;;;;;10.74;100.00;99971.19;4880460;29;19931;-69
2021/12/17 10:14:30;;;;;;;;;;;;;;;10.91;100.00;99974.47;4881312;29;19938;-70
2021/12/17 10:17:09;;;;;;;;;;;;;;;10.91;100.00;99974.47;4881286;29;19934;-70
2021/12/17 10:19:44;;;;;;;;;;;;;;;10.98;100.00;99980.25;4880861;29;19939;-69
2021/12/17 10:22:21;;;;;;;;;;;;;;;10.88;100.00;99966.78;5125766;27;20315;-70
2021/12/17 10:24:58;;;;;;;;;;;;;;;10.98;99.47;99962.66;5137761;27;19938;-71
2021/12/17 10:27:30;;;;;;;;;;;;;;;11.08;96.41;99960.09;5130941;28;20204;-70
2021/12/17 10:29:58;;;;;;;;;;;;;;;11.10;96.65;99952.16;5133120;27;20009;-69
2021/12/17 10:32:26;;;;;;;;;;;;;;;11.16;99.38;99945.13;5128275;27;19923;-70
2021/12/17 10:35:00;;;;;;;;;;;;;;;11.31;99.15;99945.47;5126489;27;19931;-70
2021/12/17 10:37:36;;;;;;;;;;;;;;;11.37;98.09;99942.03;5130552;27;20268;-70
2021/12/17 10:40:16;;;;;;;;;;;;;;;11.27;97.81;99937.00;5138597;27;19927;-70
2021/12/17 10:43:21;;;;;;;;;;;;;;;11.34;97.08;99934.38;5133283;27;19927;-70
2021/12/17 10:45:44;;;;;;;;;;;;;;;11.39;95.45;99936.06;5142057;27;19927;-69
2021/12/17 10:51:15;;;;;;;;;;;;;;;11.28;94.52;99930.22;5146665;27;19924;-70
2021/12/17 10:53:55;;;;;;;;;;;;;;;11.26;95.58;99934.53;5128262;27;20310;-70
2021/12/17 10:56:45;;;;;;;;;;;;;;;10.88;96.16;99926.81;5133664;27;20191;-70
2021/12/17 10:59:18;;;;;;;;;;;;;;;10.97;97.13;99919.84;5128955;27;19927;-70
2021/12/17 11:01:47;;;;;;;;;;;;;;;10.98;97.44;99910.25;5135728;27;19931;-70
2021/12/17 11:04:17;;;;;;;;;;;;;;;10.97;100.00;99900.25;5135950;27;19935;-69
2021/12/17 11:06:48;;;;;;;;;;;;;;;10.87;100.00;99891.59;5143910;27;19927;-69
2021/12/17 11:09:31;;;;;;;;;;;;;;;10.78;100.00;99897.38;5133012;27;19924;-69
2021/12/17 11:12:02;;;;;;;;;;;;;;;10.79;100.00;99890.59;5124367;27;19924;-69
2021/12/17 11:14:29;;;;;;;;;;;;;;;10.71;100.00;99888.78;5144793;27;19932;-70
2021/12/17 11:16:57;;;;;;;;;;;;;;;10.73;100.00;99880.84;5129387;27;19924;-70
2021/12/17 11:19:24;;;;;;;;;;;;;;;10.63;100.00;99878.59;5138049;27;19927;-69
2021/12/17 11:21:51;;;;;;;;;;;;;;;10.67;100.00;99887.88;5127687;27;19970;-70
2021/12/17 11:24:19;;;;;;;;;;;;;;;10.64;100.00;99876.63;5150267;27;19927;-69
2021/12/17 11:26:47;;;;;;;;;;;;;;;10.64;100.00;99866.22;5135599;27;19928;-70
2021/12/17 11:29:16;;;;;;;;;;;;;;;10.63;100.00;99861.81;5135483;27;19924;-70
2021/12/17 11:31:43;;;;;;;;;;;;;;;10.40;100.00;99861.59;5127136;28;20006;-70
2021/12/17 11:34:11;;;;;;;;;;;;;;;10.44;100.00;99864.50;5125452;27;19966;-70
2021/12/17 11:36:39;;;;;;;;;;;;;;;10.21;100.00;99863.44;5122388;27;19930;-70
2021/12/17 11:39:26;;;;;;;;;;;;;;;10.20;100.00;99870.19;5114997;28;19931;-70
2021/12/17 11:42:16;;;;;;;;;;;;;;;10.25;100.00;99865.19;5133159;27;19927;-70
2021/12/17 11:44:53;;;;;;;;;;;;;;;10.31;100.00;99869.34;5112642;27;19923;-70
2021/12/17 11:47:20;;;;;;;;;;;;;;;10.42;100.00;99858.44;5118451;27;19931;-69
2021/12/17 11:49:49;;;;;;;;;;;;;;;10.32;100.00;99853.38;5119808;27;19930;-69
2021/12/17 11:52:32;;;;;;;;;;;;;;;10.36;100.00;99855.09;5117296;27;19936;-69
2021/12/17 11:55:18;;;;;;;;;;;;;;;10.44;100.00;99845.72;5105483;27;20300;-69
2021/12/17 11:57:46;;;;;;;;;;;;;;;10.47;100.00;99833.00;5129705;27;19927;-70
2021/12/17 12:00:15;;;;;;;;;;;;;;;10.55;100.00;99829.22;5117736;27;19932;-70
2021/12/17 12:02:50;;;;;;;;;;;;;;;10.46;100.00;99820.19;5134041;27;19938;-69
2021/12/17 12:05:37;;;;;;;;;;;;;;;10.41;100.00;99826.88;5136381;27;20496;-70
2021/12/17 12:08:22;;;;;;;;;;;;;;;10.31;100.00;99812.63;5118737;27;19928;-69
2021/12/17 12:11:07;;;;;;;;;;;;;;;10.22;100.00;99801.59;5128602;27;19942;-70
2021/12/17 12:13:35;;;;;;;;;;;;;;;10.09;100.00;99793.63;5113460;27;20338;-69
2021/12/17 12:16:06;;;;;;;;;;;;;;;10.04;100.00;99793.88;5122149;27;19931;-69
2021/12/17 12:18:45;;;;;;;;;;;;;;;9.97;100.00;99782.50;5109478;27;19950;-69
2021/12/17 12:21:15;;;;;;;;;;;;;;;9.93;100.00;99779.59;5112254;27;19962;-70
2021/12/17 12:23:45;;;;;;;;;;;;;;;9.89;100.00;99773.94;5117410;27;20547;-69
2021/12/17 12:26:17;;;;;;;;;;;;;;;9.87;100.00;99773.50;5107945;28;20239;-70
2021/12/17 12:28:44;;;;;;;;;;;;;;;9.79;100.00;99766.06;5106566;27;19939;-69
2021/12/17 12:31:28;;;;;;;;;;;;;;;9.71;100.00;99769.00;5105088;28;19931;-70
2021/12/17 12:34:01;;;;;;;;;;;;;;;9.63;100.00;99765.22;5115042;28;19939;-70
2021/12/17 12:36:47;;;;;;;;;;;;;;;9.62;100.00;99758.00;5115565;28;20263;-70
2021/12/17 12:39:19;;;;;;;;;;;;;;;9.58;100.00;99756.28;5115004;28;19938;-69
2021/12/17 12:42:02;;;;;;;;;;;;;;;9.48;100.00;99752.03;5115155;28;19928;-70
2021/12/17 12:44:41;;;;;;;;;;;;;;;9.39;100.00;99737.38;5114404;28;19935;-70
2021/12/17 12:47:10;;;;;;;;;;;;;;;9.35;100.00;99730.06;5115187;28;19935;-69
2021/12/17 12:49:49;;;;;;;;;;;;;;;9.25;100.00;99735.00;5114969;28;20196;-69
2021/12/17 12:52:27;;;;;;;;;;;;;;;9.23;100.00;99733.72;5113031;28;19928;-70
2021/12/17 12:55:05;;;;;;;;;;;;;;;9.14;100.00;99721.91;5106537;28;19924;-69
2021/12/17 12:57:34;;;;;;;;;;;;;;;9.08;100.00;99709.38;5105576;27;20230;-70
2021/12/17 13:00:06;;;;;;;;;;;;;;;9.13;100.00;99701.56;5115583;27;19928;-70
2021/12/17 13:02:33;;;;;;;;;;;;;;;9.19;100.00;99707.72;5126937;27;19928;-70
2021/12/17 13:05:00;;;;;;;;;;;;;;;9.20;100.00;99714.91;5114516;27;19935;-70
2021/12/17 13:07:32;;;;;;;;;;;;;;;9.18;100.00;99703.28;5130637;27;19935;-70
2021/12/17 13:10:07;;;;;;;;;;;;;;;9.16;100.00;99705.63;5113151;28;19927;-70
2021/12/17 13:12:37;;;;;;;;;;;;;;;9.17;100.00;99701.66;5113233;27;19931;-70
2021/12/17 13:15:18;;;;;;;;;;;;;;;9.15;100.00;99704.00;5113917;27;19954;-70
2021/12/17 13:23:20;;;;;;;;;;;;;;;8.99;100.00;99690.00;5105822;27;19928;-69
2021/12/17 13:25:59;;;;;;;;;;;;;;;8.92;100.00;99689.78;5111795;28;19958;-69
2021/12/17 13:28:26;;;;;;;;;;;;;;;8.84;100.00;99689.91;5110238;27;19931;-70
2021/12/17 13:30:54;;;;;;;;;;;;;;;8.73;100.00;99686.78;5109907;27;19958;-70
2021/12/17 13:33:22;;;;;;;;;;;;;;;8.52;100.00;99692.53;5112301;27;19946;-69
2021/12/17 13:35:49;;;;;;;;;;;;;;;8.47;100.00;99695.56;5117512;27;19950;-69
2021/12/17 13:38:16;;;;;;;;;;;;;;;8.45;100.00;99697.06;5129833;27;19928;-70
2021/12/17 13:40:52;;;;;;;;;;;;;;;8.38;100.00;99689.31;5122411;27;19932;-70
2021/12/17 13:43:28;;;;;;;;;;;;;;;8.30;100.00;99689.41;5105374;27;19931;-70
2021/12/17 13:45:58;;;;;;;;;;;;;;;8.25;100.00;99686.81;5131906;27;19934;-69
2021/12/17 13:48:27;;;;;;;;;;;;;;;8.04;100.00;99678.59;5120105;27;19931;-69
2021/12/17 13:50:54;;;;;;;;;;;;;;;7.97;100.00;99677.53;5118634;27;20330;-70
2021/12/17 13:53:21;;;;;;;;;;;;;;;7.97;100.00;99673.59;5115637;27;20362;-75
2021/12/17 13:56:13;;;;;;;;;;;;;;;7.95;100.00;99661.97;5116382;27;19932;-70
2021/12/17 13:58:41;;;;;;;;;;;;;;;7.88;100.00;99656.19;5122608;27;19931;-70
2021/12/17 14:01:08;;;;;;;;;;;;;;;7.90;100.00;99653.84;5115487;27;19939;-70
2021/12/17 14:03:38;;;;;;;;;;;;;;;7.91;100.00;99661.06;5127732;27;19928;-69
2021/12/17 14:06:18;;;;;;;;;;;;;;;7.90;100.00;99655.81;5111404;27;19931;-70
2021/12/17 14:08:46;;;;;;;;;;;;;;;7.88;100.00;99650.59;5114720;27;19928;-70
2021/12/17 14:11:20;;;;;;;;;;;;;;;7.87;100.00;99648.97;5129452;27;19931;-70
2021/12/17 14:13:55;;;;;;;;;;;;;;;7.85;100.00;99647.69;5110725;27;20402;-70
2021/12/17 14:16:29;;;;;;;;;;;;;;;7.81;100.00;99652.34;5110232;27;20434;-70
2021/12/17 14:18:58;;;;;;;;;;;;;;;7.79;100.00;99638.78;5122105;27;19927;-70
2021/12/17 14:21:29;;;;;;;;;;;;;;;7.73;100.00;99636.53;5110695;28;19935;-70
2021/12/17 14:23:56;;;;;;;;;;;;;;;7.62;100.00;99632.59;5113909;28;19954;-70
2021/12/17 14:26:28;;;;;;;;;;;;;;;7.56;100.00;99643.13;5108657;28;19942;-70
2021/12/17 14:29:07;;;;;;;;;;;;;;;7.51;100.00;99635.00;5129176;28;20295;-70
2021/12/17 14:31:34;;;;;;;;;;;;;;;7.42;100.00;99623.19;5113075;28;19931;-70
2021/12/17 14:34:02;;;;;;;;;;;;;;;7.35;100.00;99620.16;5111969;28;19954;-70
2021/12/17 14:36:30;;;;;;;;;;;;;;;7.26;100.00;99620.22;5112992;28;20254;-70
2021/12/17 14:39:04;;;;;;;;;;;;;;;7.26;100.00;99616.66;5123499;28;19931;-70
2021/12/17 14:41:45;;;;;;;;;;;;;;;7.16;100.00;99629.00;5128364;28;19927;-69
2021/12/17 14:47:05;;;;;;;;;;;;;;;6.85;100.00;99645.34;5115687;28;19927;-69
2021/12/17 15:05:53;;;;;;;;;;;;;;;5.98;100.00;99604.66;5097482;28;19935;-69
2021/12/17 15:08:20;;;;;;;;;;;;;;;5.91;100.00;99604.38;5100673;28;19928;-69
2021/12/17 15:10:48;;;;;;;;;;;;;;;5.78;100.00;99609.00;5113774;27;19935;-69
2021/12/17 15:13:15;;;;;;;;;;;;;;;5.62;100.00;99621.81;5116072;27;19928;-70
2021/12/17 15:15:43;;;;;;;;;;;;;;;5.50;100.00;99610.56;5123234;27;19928;-69
2021/12/17 15:18:15;;;;;;;;;;;;;;;5.36;100.00;99609.97;5113542;27;19927;-69
2021/12/17 15:20:44;;;;;;;;;;;;;;;5.23;100.00;99602.69;5110635;27;19932;-69
2021/12/17 15:23:11;;;;;;;;;;;;;;;5.06;100.00;99600.75;5112952;27;19928;-70
2021/12/17 15:25:40;;;;;;;;;;;;;;;4.80;100.00;99591.69;5115259;27;19932;-70
2021/12/17 15:28:09;;;;;;;;;;;;;;;4.78;100.00;99598.72;5107853;27;20227;-69
2021/12/17 15:30:38;;;;;;;;;;;;;;;4.63;100.00;99594.50;5094830;28;19928;-69
2021/12/17 15:33:05;;;;;;;;;;;;;;;4.43;100.00;99590.44;5102848;27;19934;-69
2021/12/17 15:35:33;;;;;;;;;;;;;;;4.35;100.00;99596.78;5120918;27;19932;-69
2021/12/17 15:38:01;;;;;;;;;;;;;;;4.26;100.00;99603.44;5113676;27;19928;-69
2021/12/17 15:40:29;;;;;;;;;;;;;;;4.18;100.00;99598.75;5108131;28;19927;-69
2021/12/17 15:43:02;;;;;;;;;;;;;;;4.13;100.00;99599.72;5107239;27;20304;-70
2021/12/17 15:45:34;;;;;;;;;;;;;;;4.14;100.00;99593.03;5108894;27;19928;-70
2021/12/17 15:48:01;;;;;;;;;;;;;;;4.07;100.00;99589.94;5112613;27;19931;-70
2021/12/17 15:50:36;;;;;;;;;;;;;;;4.04;100.00;99579.50;5111047;27;19924;-69
2021/12/17 15:53:04;;;;;;;;;;;;;;;4.07;100.00;99567.78;5114255;27;19930;-69
2021/12/17 15:55:32;;;;;;;;;;;;;;;4.01;100.00;99568.28;5118201;27;19942;-70
2021/12/17 15:58:01;;;;;;;;;;;;;;;3.97;100.00;99565.31;5111109;27;19934;-70
2021/12/17 16:00:32;;;;;;;;;;;;;;;3.94;100.00;99565.97;5106248;27;20338;-69
2021/12/17 16:03:01;;;;;;;;;;;;;;;3.94;100.00;99560.44;5110368;27;20397;-70
2021/12/17 16:05:30;;;;;;;;;;;;;;;3.92;100.00;99569.06;5115334;27;19928;-69
2021/12/17 16:07:58;;;;;;;;;;;;;;;3.88;100.00;99564.50;5103098;27;19955;-69
2021/12/17 16:18:49;;;;;;;;;;;;;;;3.78;100.00;99565.63;5108793;27;19973;-69
2021/12/17 16:21:16;;;;;;;;;;;;;;;3.81;100.00;99565.00;5102807;27;19959;-70
2021/12/17 16:23:45;;;;;;;;;;;;;;;3.87;100.00;99557.34;5113552;27;20149;-70
2021/12/17 16:26:14;;;;;;;;;;;;;;;3.92;100.00;99559.94;5104978;27;19923;-69
2021/12/17 16:28:47;;;;;;;;;;;;;;;3.95;100.00;99559.31;5123848;27;19926;-69
2021/12/17 16:31:16;;;;;;;;;;;;;;;4.00;100.00;99561.91;5114075;27;19934;-69
2021/12/17 16:33:44;;;;;;;;;;;;;;;4.09;100.00;99554.44;5112924;27;19946;-69
2021/12/17 16:36:12;;;;;;;;;;;;;;;4.09;100.00;99554.44;5113455;27;19930;-69
2021/12/17 16:38:40;;;;;;;;;;;;;;;4.11;100.00;99552.16;5120476;27;19935;-69
2021/12/17 16:41:08;;;;;;;;;;;;;;;4.15;100.00;99549.56;5103534;27;20015;-68
2021/12/17 16:43:37;;;;;;;;;;;;;;;4.20;100.00;99555.75;5098792;28;19958;-69
2021/12/17 16:46:23;;;;;;;;;;;;;;;4.25;100.00;99549.22;5114912;27;20235;-69
2021/12/17 16:48:51;;;;;;;;;;;;;;;4.29;100.00;99551.03;5122323;27;19928;-69
2021/12/17 16:51:20;;;;;;;;;;;;;;;4.32;100.00;99552.31;5106959;27;20212;-69
2021/12/17 16:53:48;;;;;;;;;;;;;;;4.35;100.00;99549.69;5112709;27;20223;-70
2021/12/17 16:56:16;;;;;;;;;;;;;;;4.36;100.00;99547.75;5099574;28;19943;-70
2021/12/17 16:58:43;;;;;;;;;;;;;;;4.40;100.00;99532.13;5113054;27;19923;-69
2021/12/17 17:01:11;;;;;;;;;;;;;;;4.41;100.00;99540.09;5103519;27;19931;-69
2021/12/17 17:03:39;;;;;;;;;;;;;;;4.44;100.00;99544.16;5112675;27;19924;-69
2021/12/17 17:06:07;;;;;;;;;;;;;;;4.48;100.00;99551.50;5119258;27;19951;-69
2021/12/17 17:08:35;;;;;;;;;;;;;;;4.49;100.00;99553.13;5113340;27;19938;-69
2021/12/17 17:11:04;;;;;;;;;;;;;;;4.50;100.00;99551.97;5113906;27;19928;-69
2021/12/17 17:13:32;;;;;;;;;;;;;;;4.52;100.00;99535.03;5114354;27;19935;-70
2021/12/17 17:16:04;;;;;;;;;;;;;;;4.56;100.00;99539.59;5117713;27;19931;-70
2021/12/17 17:18:32;;;;;;;;;;;;;;;4.61;100.00;99544.97;5104677;27;19935;-70
2021/12/17 17:21:01;;;;;;;;;;;;;;;4.68;100.00;99557.50;5108468;28;19932;-68
2021/12/17 17:23:29;;;;;;;;;;;;;;;4.74;100.00;99556.19;5107075;27;19958;-69
2021/12/17 17:25:56;;;;;;;;;;;;;;;4.80;100.00;99557.63;5107045;27;19931;-69
2021/12/17 17:28:24;;;;;;;;;;;;;;;4.87;100.00;99547.66;5115691;27;19930;-69
2021/12/17 17:30:54;;;;;;;;;;;;;;;4.93;100.00;99545.53;5103196;28;19931;-70
2021/12/17 17:33:22;;;;;;;;;;;;;;;4.98;100.00;99537.06;5113850;27;20211;-70
2021/12/17 17:35:50;;;;;;;;;;;;;;;5.02;100.00;99533.28;5121040;27;19938;-69
2021/12/17 17:38:18;;;;;;;;;;;;;;;5.07;100.00;99524.78;5122648;27;20362;-69
2021/12/17 17:40:45;;;;;;;;;;;;;;;5.08;100.00;99531.97;5121904;27;20303;-69
2021/12/17 17:43:15;;;;;;;;;;;;;;;5.11;100.00;99536.81;5120191;27;19928;-69
2021/12/17 17:45:43;;;;;;;;;;;;;;;5.12;100.00;99537.66;5116315;27;19931;-69
2021/12/17 17:48:12;;;;;;;;;;;;;;;5.16;100.00;99531.09;5122026;27;19928;-69
2021/12/17 17:50:40;;;;;;;;;;;;;;;5.17;100.00;99529.16;5117808;27;20302;-69
2021/12/17 17:53:09;;;;;;;;;;;;;;;5.13;100.00;99528.19;5110350;28;19927;-70
2021/12/17 17:55:38;;;;;;;;;;;;;;;5.11;100.00;99525.75;5110727;27;19928;-70
2021/12/17 17:58:05;;;;;;;;;;;;;;;5.08;100.00;99529.19;5116036;27;19932;-69
2021/12/17 18:00:33;;;;;;;;;;;;;;;5.09;100.00;99522.50;5111095;27;19924;-74
2021/12/17 18:03:00;;;;;;;;;;;;;;;5.09;100.00;99521.66;5117845;27;19938;-69
2021/12/17 18:05:28;;;;;;;;;;;;;;;5.08;100.00;99525.59;5116890;27;20334;-72
2021/12/17 18:07:55;;;;;;;;;;;;;;;5.07;100.00;99523.97;5116808;27;19935;-71
2021/12/17 18:10:23;;;;;;;;;;;;;;;5.06;100.00;99527.91;5126120;27;19931;-70
2021/12/17 18:12:52;;;;;;;;;;;;;;;5.04;100.00;99524.63;5127919;27;19940;-72
2021/12/17 18:15:20;;;;;;;;;;;;;;;5.02;100.00;99527.75;5134584;27;19923;-71
2021/12/17 18:17:47;;;;;;;;;;;;;;;5.03;100.00;99534.91;5115120;27;19927;-72
2021/12/17 18:20:17;;;;;;;;;;;;;;;5.04;100.00;99533.75;5118752;28;19935;-71
2021/12/17 18:22:45;;;;;;;;;;;;;;;5.04;100.00;99541.25;5126123;28;19990;-71
2021/12/17 18:25:13;;;;;;;;;;;;;;;5.03;100.00;99540.47;5122721;28;19927;-71
2021/12/17 18:27:41;;;;;;;;;;;;;;;5.07;100.00;99540.59;5128700;28;19935;-71
2021/12/17 18:30:13;;;;;;;;;;;;;;;5.08;100.00;99542.25;5134007;28;19932;-71
2021/12/17 18:32:40;;;;;;;;;;;;;;;5.17;100.00;99540.25;5116419;28;19951;-71
2021/12/17 18:35:08;;;;;;;;;;;;;;;5.22;100.00;99540.06;5118734;28;20319;-71
2021/12/17 18:37:36;;;;;;;;;;;;;;;5.25;100.00;99543.00;5125241;28;19935;-70
2021/12/17 18:40:06;;;;;;;;;;;;;;;5.33;100.00;99550.44;5115288;28;19928;-71
2021/12/17 18:45:20;;;;;;;;;;;;;;;5.52;100.00;99561.16;5121170;27;19935;-69
2021/12/17 18:47:47;;;;;;;;;;;;;;;5.57;100.00;99557.38;5129102;27;19923;-69
2021/12/17 18:50:15;;;;;;;;;;;;;;;5.60;100.00;99563.03;5124641;27;19931;-69
2021/12/17 18:52:42;;;;;;;;;;;;;;;5.64;100.00;99565.97;5119551;27;19931;-69
2021/12/17 18:55:10;;;;;;;;;;;;;;;5.64;100.00;99565.97;5131855;27;19932;-68
2021/12/17 18:57:37;;;;;;;;;;;;;;;5.65;100.00;99573.16;5118833;27;19927;-68
2021/12/17 19:00:05;;;;;;;;;;;;;;;5.71;100.00;99577.34;5130997;27;20553;-69
2021/12/17 19:02:33;;;;;;;;;;;;;;;5.75;100.00;99568.03;5120647;27;19928;-69
2021/12/17 19:05:01;;;;;;;;;;;;;;;5.81;100.00;99563.09;5117830;27;19927;-68
2021/12/17 19:07:28;;;;;;;;;;;;;;;5.89;100.00;99565.03;5120672;27;19931;-68
2021/12/17 19:09:55;;;;;;;;;;;;;;;5.88;100.00;99569.78;5121556;27;19950;-68
2021/12/17 19:12:23;;;;;;;;;;;;;;;5.92;100.00;99567.94;5124054;27;19939;-68
2021/12/17 19:14:50;;;;;;;;;;;;;;;5.89;100.00;99563.06;5134698;27;19927;-68
2021/12/17 19:17:19;;;;;;;;;;;;;;;5.87;100.00;99559.00;5123733;27;19923;-69
2021/12/17 19:20:00;;;;;;;;;;;;;;;5.85;100.00;99562.13;5110643;27;19932;-68
2021/12/17 19:22:34;;;;;;;;;;;;;;;5.85;100.00;99559.34;5120133;27;20197;-68
2021/12/17 19:25:20;;;;;;;;;;;;;;;5.84;100.00;99559.66;5124504;27;19928;-68
2021/12/17 19:27:50;;;;;;;;;;;;;;;5.79;100.00;99557.06;5098971;28;20716;-71
2021/12/17 19:30:18;;;;;;;;;;;;;;;5.76;100.00;99550.22;5120377;27;19928;-70
2021/12/17 19:32:46;;;;;;;;;;;;;;;5.77;100.00;99554.63;5115236;27;20333;-71
2021/12/17 19:35:14;;;;;;;;;;;;;;;5.79;100.00;99546.78;5115645;27;19931;-71
2021/12/17 19:37:42;;;;;;;;;;;;;;;5.75;100.00;99551.38;5121808;27;19927;-71
2021/12/17 19:40:10;;;;;;;;;;;;;;;5.75;100.00;99554.16;5118347;27;19928;-70
2021/12/17 19:42:37;;;;;;;;;;;;;;;5.74;100.00;99546.97;5120556;27;19947;-70
2021/12/17 19:45:05;;;;;;;;;;;;;;;5.76;100.00;99547.47;5116244;27;19928;-70
2021/12/17 19:50:11;;;;;;;;;;;;;;;5.82;100.00;99545.31;5124332;27;19939;-71
2021/12/17 19:52:40;;;;;;;;;;;;;;;5.77;100.00;99542.72;5124138;27;20326;-71
2021/12/17 19:55:08;;;;;;;;;;;;;;;5.72;100.00;99545.69;5096258;28;19934;-69
2021/12/17 19:57:36;;;;;;;;;;;;;;;5.70;100.00;99548.78;5115673;27;19935;-71
2021/12/17 20:00:07;;;;;;;;;;;;;;;5.70;100.00;99543.22;5116845;27;19938;-71
